createdAt,value
2023-04-23T00:03:06.989Z,14.65
2023-04-23T00:08:06.846Z,14.64
2023-04-23T00:13:06.777Z,14.64
2023-04-23T00:18:06.716Z,14.67
2023-04-23T00:23:06.632Z,14.71
2023-04-23T00:28:06.611Z,14.71
2023-04-23T00:33:06.536Z,14.74
2023-04-23T00:38:06.466Z,14.65
2023-04-23T00:43:06.384Z,14.49
2023-04-23T00:48:06.347Z,14.34
2023-04-23T00:53:06.281Z,14.27
2023-04-23T00:58:06.358Z,14.16
2023-04-23T01:03:06.260Z,14.04
2023-04-23T01:08:06.089Z,13.98
2023-04-23T01:13:06.013Z,13.99
2023-04-23T01:18:05.970Z,14.14
2023-04-23T01:23:05.913Z,14.17
2023-04-23T01:28:05.853Z,14.04
2023-04-23T01:33:05.763Z,13.87
2023-04-23T01:38:05.697Z,13.92
2023-04-23T01:43:05.614Z,14.04
2023-04-23T01:48:05.549Z,14.09
2023-04-23T01:53:05.495Z,13.96
2023-04-23T01:58:05.425Z,13.91
2023-04-23T02:03:05.421Z,13.95
2023-04-23T02:08:05.296Z,13.92
2023-04-23T02:13:05.226Z,13.84
2023-04-23T02:18:05.174Z,13.67
2023-04-23T02:23:05.093Z,13.69
2023-04-23T02:28:05.053Z,13.51
2023-04-23T02:33:04.968Z,13.47
2023-04-23T02:38:04.902Z,13.37
2023-04-23T02:43:04.850Z,13.37
2023-04-23T02:48:04.921Z,13.51
2023-04-23T02:53:04.702Z,13.49
2023-04-23T02:58:04.650Z,13.40
2023-04-23T03:03:04.761Z,13.43
2023-04-23T03:08:04.511Z,13.40
2023-04-23T03:13:04.428Z,13.29
2023-04-23T03:18:04.473Z,13.51
2023-04-23T03:23:04.337Z,13.92
2023-04-23T03:28:04.274Z,13.95
2023-04-23T03:33:04.174Z,13.94
2023-04-23T03:38:04.099Z,14.20
2023-04-23T03:43:04.035Z,14.17
2023-04-23T03:48:03.980Z,14.04
2023-04-23T03:53:03.903Z,14.35
2023-04-23T03:58:03.854Z,14.80
2023-04-23T04:03:04.290Z,15.03
2023-04-23T04:08:03.732Z,14.95
2023-04-23T04:13:03.662Z,15.08
2023-04-23T04:18:03.920Z,15.15
2023-04-23T04:23:03.527Z,15.36
2023-04-23T04:28:03.469Z,15.46
2023-04-23T04:33:03.387Z,15.54
2023-04-23T04:38:03.334Z,15.57
2023-04-23T04:43:03.253Z,15.94
2023-04-23T04:48:03.199Z,16.01
2023-04-23T04:53:03.123Z,15.75
2023-04-23T04:58:03.065Z,15.64
2023-04-23T05:03:03.272Z,15.89
2023-04-23T05:08:02.935Z,16.23
2023-04-23T05:13:02.852Z,16.53
2023-04-23T05:18:02.864Z,16.98
2023-04-23T05:23:02.717Z,17.35
2023-04-23T05:28:02.666Z,17.53
2023-04-23T05:33:02.637Z,17.94
2023-04-23T05:38:02.521Z,17.97
2023-04-23T05:43:02.448Z,18.04
2023-04-23T05:48:02.405Z,18.03
2023-04-23T05:53:02.314Z,18.36
2023-04-23T05:58:02.249Z,19.15
2023-04-23T06:03:02.278Z,20.15
2023-04-23T06:08:02.128Z,21.45
2023-04-23T06:13:02.045Z,22.41
2023-04-23T06:18:02.011Z,23.29
2023-04-23T06:23:01.923Z,24.27
2023-04-23T06:28:01.894Z,25.09
2023-04-23T06:33:01.999Z,25.25
2023-04-23T06:38:01.779Z,24.14
2023-04-23T06:43:01.707Z,23.47
2023-04-23T06:48:01.702Z,22.69
2023-04-23T06:53:01.582Z,22.09
2023-04-23T06:58:01.520Z,21.19
2023-04-23T07:03:01.478Z,20.21
2023-04-23T07:08:01.378Z,19.91
2023-04-23T07:13:01.292Z,19.75
2023-04-23T07:18:01.308Z,19.57
2023-04-23T07:23:01.164Z,19.55
2023-04-23T07:28:01.101Z,19.51
2023-04-23T07:33:01.122Z,19.69
2023-04-23T07:38:00.969Z,19.51
2023-04-23T07:43:00.904Z,19.58
2023-04-23T07:48:00.873Z,19.80
2023-04-23T07:53:00.778Z,19.76
2023-04-23T07:58:00.712Z,19.87
2023-04-23T08:03:00.749Z,20.12
2023-04-23T08:08:00.584Z,20.91
2023-04-23T08:13:00.541Z,22.17
2023-04-23T08:18:00.470Z,21.46
2023-04-23T08:23:00.379Z,21.38
2023-04-23T08:28:00.315Z,21.45
2023-04-23T08:33:00.285Z,21.75
2023-04-23T08:38:00.683Z,21.90
2023-04-23T08:43:00.233Z,22.01
2023-04-23T08:48:02.149Z,21.61
2023-04-23T08:52:59.985Z,21.20
2023-04-23T08:57:59.962Z,20.56
2023-04-23T09:03:00.121Z,20.38
2023-04-23T09:07:59.796Z,20.18
2023-04-23T09:12:59.721Z,19.78
2023-04-23T09:17:59.760Z,19.58
2023-04-23T09:22:59.605Z,19.60
2023-04-23T09:27:59.523Z,19.95
2023-04-23T09:32:59.495Z,20.53
2023-04-23T09:37:59.412Z,20.77
2023-04-23T09:42:59.334Z,20.64
2023-04-23T09:47:59.462Z,20.68
2023-04-23T09:52:59.236Z,20.65
2023-04-23T09:57:59.185Z,20.61
2023-04-23T10:02:59.108Z,20.25
2023-04-23T10:07:59.059Z,20.33
2023-04-23T10:12:58.956Z,20.64
2023-04-23T10:17:58.940Z,21.08
2023-04-23T10:22:58.825Z,21.23
2023-04-23T10:27:58.750Z,21.27
2023-04-23T10:32:58.762Z,21.27
2023-04-23T10:37:58.620Z,21.24
2023-04-23T10:42:58.572Z,21.02
2023-04-23T10:47:58.522Z,20.98
2023-04-23T10:52:58.871Z,21.04
2023-04-23T10:58:00.875Z,21.24
2023-04-23T11:02:58.405Z,21.45
2023-04-23T11:08:01.667Z,21.60
2023-04-23T11:20:05.417Z,21.08
2023-04-23T11:24:44.372Z,21.19
2023-04-23T11:29:44.727Z,20.64
2023-04-23T11:34:44.195Z,20.89
2023-04-23T11:39:44.674Z,21.11
2023-04-23T11:44:44.057Z,21.36
2023-04-23T11:49:44.874Z,21.27
2023-04-23T11:54:43.918Z,21.71
2023-04-23T11:59:44.164Z,21.45
2023-04-23T12:04:43.805Z,21.44
2023-04-23T12:09:43.892Z,21.60
2023-04-23T12:14:43.688Z,21.11
2023-04-23T12:19:43.774Z,21.19
2023-04-23T12:24:43.512Z,21.11
2023-04-23T12:29:43.755Z,21.09
2023-04-23T12:34:43.651Z,21.06
2023-04-23T12:39:43.551Z,20.59
2023-04-23T12:44:43.296Z,20.99
2023-04-23T12:49:43.556Z,20.86
2023-04-23T12:54:43.127Z,21.53
2023-04-23T12:59:43.317Z,21.51
2023-04-23T13:04:42.995Z,21.26
2023-04-23T13:09:43.267Z,21.94
2023-04-23T13:14:42.852Z,22.57
2023-04-23T13:19:42.903Z,22.56
2023-04-23T13:24:42.737Z,22.82
2023-04-23T13:29:43.078Z,22.86
2023-04-23T13:34:42.606Z,22.89
2023-04-23T13:39:42.716Z,22.41
2023-04-23T13:44:42.488Z,22.27
2023-04-23T13:49:42.590Z,22.22
2023-04-23T13:54:42.331Z,22.87
2023-04-23T13:59:42.624Z,22.60
2023-04-23T14:04:42.243Z,22.12
2023-04-23T14:09:42.574Z,21.94
2023-04-23T14:14:42.076Z,22.22
2023-04-23T14:19:42.160Z,22.25
2023-04-23T14:24:41.925Z,22.07
2023-04-23T14:29:42.064Z,22.28
2023-04-23T14:34:41.781Z,21.88
2023-04-23T14:39:41.957Z,21.54
2023-04-23T14:44:41.650Z,20.99
2023-04-23T14:49:42.047Z,20.16
2023-04-23T14:54:41.552Z,19.58
2023-04-23T14:59:41.713Z,19.32
2023-04-23T15:04:41.417Z,19.01
2023-04-23T15:09:41.629Z,19.01
2023-04-23T15:14:41.249Z,19.21
2023-04-23T15:19:41.552Z,19.38
2023-04-23T15:24:41.118Z,19.88
2023-04-23T15:29:41.281Z,20.50
2023-04-23T15:34:40.982Z,20.64
2023-04-23T15:39:41.201Z,20.34
2023-04-23T15:44:40.879Z,19.43
2023-04-23T15:49:40.956Z,20.12
2023-04-23T15:54:40.722Z,19.15
2023-04-23T15:59:40.826Z,19.05
2023-04-23T16:04:40.865Z,19.58
2023-04-23T16:09:40.876Z,20.21
2023-04-23T16:14:40.519Z,20.86
2023-04-23T16:19:40.602Z,20.28
2023-04-23T16:24:40.320Z,20.79
2023-04-23T16:29:40.337Z,20.72
2023-04-23T16:34:40.470Z,21.13
2023-04-23T16:39:40.355Z,21.50
2023-04-23T16:44:40.058Z,21.34
2023-04-23T16:49:40.088Z,19.73
2023-04-23T16:54:40.094Z,19.14
2023-04-23T16:59:39.860Z,19.06
2023-04-23T17:04:40.177Z,18.94
2023-04-23T17:09:39.720Z,19.13
2023-04-23T17:14:39.783Z,20.00
2023-04-23T17:19:39.585Z,20.06
2023-04-23T17:24:39.555Z,20.10
2023-04-23T17:29:39.444Z,19.72
2023-04-23T17:34:39.606Z,19.31
2023-04-23T17:39:39.313Z,19.23
2023-04-23T17:44:39.271Z,19.32
2023-04-23T17:49:39.280Z,19.23
2023-04-23T17:54:39.130Z,18.82
2023-04-23T17:59:39.056Z,18.22
2023-04-23T18:04:38.976Z,18.44
2023-04-23T18:09:38.915Z,18.77
2023-04-23T18:14:38.842Z,18.70
2023-04-23T18:19:38.771Z,18.55
2023-04-23T18:24:38.701Z,18.29
2023-04-23T18:29:38.651Z,18.76
2023-04-23T18:34:38.632Z,18.57
2023-04-23T18:39:38.503Z,18.77
2023-04-23T18:44:38.465Z,18.52
2023-04-23T18:49:38.419Z,18.58
2023-04-23T18:54:38.326Z,18.79
2023-04-23T18:59:38.238Z,18.84
2023-04-23T19:04:38.387Z,18.87
2023-04-23T19:09:38.103Z,18.73
2023-04-23T19:14:38.031Z,18.49
2023-04-23T19:19:37.969Z,18.25
2023-04-23T19:24:37.907Z,18.18
2023-04-23T19:29:37.839Z,18.06
2023-04-23T19:34:37.761Z,18.18
2023-04-23T19:39:37.706Z,18.04
2023-04-23T19:44:37.651Z,16.96
2023-04-23T19:49:37.588Z,16.15
2023-04-23T19:54:37.507Z,15.64
2023-04-23T19:59:37.425Z,15.24
2023-04-23T20:04:37.426Z,15.06
2023-04-23T20:09:37.300Z,14.80
2023-04-23T20:14:37.237Z,14.57
2023-04-23T20:19:37.165Z,14.31
2023-04-23T20:24:37.099Z,14.17
2023-04-23T20:29:37.052Z,14.07
2023-04-23T20:34:36.961Z,14.01
2023-04-23T20:39:36.900Z,13.94
2023-04-23T20:44:36.832Z,13.80
2023-04-23T20:49:36.769Z,13.77
2023-04-23T20:54:36.720Z,13.67
2023-04-23T20:59:36.639Z,13.54
2023-04-23T21:04:36.679Z,13.40
2023-04-23T21:09:36.488Z,13.41
2023-04-23T21:14:36.440Z,13.44
2023-04-23T21:19:36.350Z,13.47
2023-04-23T21:24:36.304Z,13.51
2023-04-23T21:29:36.239Z,13.58
2023-04-23T21:34:36.161Z,13.49
2023-04-23T21:39:36.089Z,13.33
2023-04-23T21:44:36.023Z,13.46
2023-04-23T21:49:35.941Z,13.47
2023-04-23T21:54:35.904Z,13.69
2023-04-23T21:59:35.823Z,13.81
2023-04-23T22:04:36.003Z,13.63
2023-04-23T22:09:35.694Z,13.65
2023-04-23T22:14:35.635Z,13.47
2023-04-23T22:19:35.549Z,13.41
2023-04-23T22:24:35.519Z,13.40
2023-04-23T22:29:35.459Z,13.38
2023-04-23T22:34:35.386Z,13.38
2023-04-23T22:39:35.310Z,13.27
2023-04-23T22:44:35.420Z,13.06
2023-04-23T22:49:35.180Z,13.03
2023-04-23T22:54:35.097Z,13.09
2023-04-23T22:59:35.051Z,13.15
2023-04-23T23:04:35.074Z,13.14
2023-04-23T23:09:34.924Z,13.04
2023-04-23T23:14:34.860Z,13.03
2023-04-23T23:19:34.780Z,13.02
2023-04-23T23:24:35.102Z,13.06
2023-04-23T23:29:34.664Z,13.14
2023-04-23T23:34:34.589Z,13.30
2023-04-23T23:39:34.553Z,13.29
2023-04-23T23:44:34.460Z,13.20
2023-04-23T23:49:34.421Z,13.14
2023-04-23T23:54:34.321Z,13.07
2023-04-23T23:59:34.255Z,13.14
